Time;durP1;ratioP1;P1;durP2;ratioP2;P2;SDS_P1;SDS_P2;PMS_P1;PMS_P2;Temp;Humidity;BMP_temperature;BMP_pressure;BME280_temperature;BME280_humidity;BME280_pressure;Samples;Min_cycle;Max_cycle;Signal;HPM_P1;HPM_P2
2022/07/17 00:01:41;;;;;;;5.43;1.80;;;15.90;1.00;;;;;;5044219;28;20453;-76
2022/07/17 00:04:17;;;;;;;4.20;1.53;;;15.80;1.00;;;;;;5041950;28;20391;-76
2022/07/17 00:06:47;;;;;;;4.17;1.60;;;15.80;1.00;;;;;;5053970;28;20448;-76
2022/07/17 00:09:17;;;;;;;3.50;1.80;;;15.70;1.00;;;;;;5053354;28;20805;-76
2022/07/17 00:11:47;;;;;;;5.70;1.70;;;15.60;1.00;;;;;;5053620;28;20414;-77
2022/07/17 00:14:17;;;;;;;6.17;1.90;;;15.50;1.00;;;;;;5033848;28;20883;-76
2022/07/17 00:16:43;;;;;;;7.90;2.07;;;15.50;1.00;;;;;;5047439;28;20439;-74
2022/07/17 00:19:08;;;;;;;2.03;1.37;;;15.40;1.00;;;;;;5052813;28;20845;-74
2022/07/17 00:21:35;;;;;;;7.03;2.20;;;15.40;1.00;;;;;;5053535;28;20176;-74
2022/07/17 00:24:01;;;;;;;7.80;1.80;;;15.30;1.00;;;;;;5059191;28;20255;-74
2022/07/17 00:26:27;;;;;;;3.30;1.70;;;15.30;1.00;;;;;;5046489;28;20524;-74
2022/07/17 00:28:52;;;;;;;3.80;1.63;;;15.20;1.00;;;;;;5059522;28;20679;-74
2022/07/17 00:31:23;;;;;;;3.20;1.80;;;15.10;1.00;;;;;;5060433;28;20171;-74
2022/07/17 00:33:49;;;;;;;1.87;1.67;;;15.10;1.00;;;;;;5060051;28;20187;-74
2022/07/17 00:36:15;;;;;;;3.33;1.47;;;15.00;1.00;;;;;;5059919;28;20520;-74
2022/07/17 00:38:40;;;;;;;3.97;1.93;;;15.10;1.00;;;;;;5059417;28;20703;-74
2022/07/17 00:41:14;;;;;;;2.30;1.60;;;15.00;1.00;;;;;;5055306;28;20254;-74
2022/07/17 00:43:39;;;;;;;12.57;2.20;;;14.90;1.00;;;;;;5052261;28;20180;-74
2022/07/17 00:46:05;;;;;;;6.70;2.00;;;14.90;1.00;;;;;;5060403;28;20885;-74
2022/07/17 00:48:32;;;;;;;5.20;1.73;;;14.90;1.00;;;;;;5059748;28;20282;-74
2022/07/17 00:50:57;;;;;;;4.57;1.80;;;14.80;1.00;;;;;;5040484;28;20393;-74
2022/07/17 00:53:23;;;;;;;6.87;1.77;;;14.70;1.00;;;;;;5058081;28;20396;-74
2022/07/17 00:55:49;;;;;;;2.53;1.30;;;14.70;1.00;;;;;;5046258;28;20217;-74
2022/07/17 00:58:23;;;;;;;4.43;1.83;;;14.60;1.00;;;;;;5059392;28;20438;-74
2022/07/17 01:00:59;;;;;;;4.67;1.90;;;14.50;1.00;;;;;;5047096;28;20619;-74
2022/07/17 01:03:26;;;;;;;5.00;1.70;;;14.50;1.00;;;;;;5056790;28;20422;-74
2022/07/17 01:05:52;;;;;;;6.00;2.00;;;14.50;1.00;;;;;;5053070;28;20904;-74
2022/07/17 01:08:18;;;;;;;4.83;1.83;;;14.40;1.00;;;;;;5052025;28;20407;-74
2022/07/17 01:10:44;;;;;;;3.33;1.53;;;14.40;1.00;;;;;;5059320;28;20914;-74
2022/07/17 01:13:10;;;;;;;6.50;1.70;;;14.40;1.00;;;;;;5059706;28;20433;-74
2022/07/17 01:15:38;;;;;;;4.90;2.00;;;14.30;1.00;;;;;;5059777;28;20179;-74
2022/07/17 01:18:07;;;;;;;3.63;1.80;;;14.30;1.00;;;;;;5059431;28;20418;-74
2022/07/17 01:20:33;;;;;;;3.13;1.77;;;14.20;1.00;;;;;;5059456;28;20747;-74
2022/07/17 01:23:11;;;;;;;10.70;1.87;;;14.20;1.00;;;;;;5059660;28;20392;-75
2022/07/17 01:25:37;;;;;;;2.63;1.80;;;14.20;1.00;;;;;;5059446;28;20438;-74
2022/07/17 01:28:05;;;;;;;4.17;2.57;;;14.10;1.00;;;;;;5055374;28;20929;-74
2022/07/17 01:30:36;;;;;;;4.83;2.10;;;14.10;1.00;;;;;;5050265;28;20203;-76
2022/07/17 01:33:05;;;;;;;8.43;2.10;;;14.00;1.00;;;;;;5042896;28;20429;-76
2022/07/17 01:35:31;;;;;;;5.93;1.97;;;14.00;1.00;;;;;;5056544;28;20373;-76
2022/07/17 01:37:59;;;;;;;9.03;2.53;;;13.90;1.00;;;;;;5054874;28;20422;-76
2022/07/17 01:40:35;;;;;;;3.60;1.83;;;13.90;1.00;;;;;;5056133;28;20204;-76
2022/07/17 01:43:01;;;;;;;6.10;2.13;;;13.90;1.00;;;;;;5038367;28;20468;-76
2022/07/17 01:45:27;;;;;;;7.33;1.93;;;13.80;1.00;;;;;;5055348;28;20522;-73
2022/07/17 01:47:59;;;;;;;6.00;2.10;;;13.80;1.00;;;;;;5051963;28;20585;-74
2022/07/17 01:50:29;;;;;;;6.13;2.00;;;13.70;1.00;;;;;;5056010;28;20859;-75
2022/07/17 01:52:59;;;;;;;3.70;2.10;;;13.70;1.00;;;;;;5056270;28;20413;-74
2022/07/17 01:55:25;;;;;;;4.17;2.13;;;13.70;1.00;;;;;;5054807;28;20400;-74
2022/07/17 01:57:51;;;;;;;4.50;2.00;;;13.60;1.00;;;;;;5054475;28;20397;-74
2022/07/17 02:00:18;;;;;;;3.87;2.30;;;13.60;1.00;;;;;;5055909;28;20858;-74
2022/07/17 02:02:47;;;;;;;13.93;2.57;;;13.60;1.00;;;;;;5056023;28;20187;-74
2022/07/17 02:05:13;;;;;;;5.33;2.00;;;13.50;1.00;;;;;;5052618;28;20385;-74
2022/07/17 02:07:43;;;;;;;6.50;2.00;;;13.50;1.00;;;;;;5045554;28;20418;-74
2022/07/17 02:10:13;;;;;;;10.23;2.00;;;13.50;1.00;;;;;;5055593;28;20384;-74
2022/07/17 02:12:39;;;;;;;8.67;1.83;;;13.50;1.00;;;;;;5046422;28;20537;-74
2022/07/17 02:15:05;;;;;;;2.87;1.77;;;13.50;1.00;;;;;;5052710;28;20412;-74
2022/07/17 02:17:31;;;;;;;3.37;2.03;;;13.40;1.00;;;;;;5046720;28;20607;-74
2022/07/17 02:19:57;;;;;;;2.50;1.50;;;13.30;1.00;;;;;;5053820;28;20507;-74
2022/07/17 02:22:23;;;;;;;2.63;1.53;;;13.30;1.00;;;;;;5055291;28;20190;-74
2022/07/17 02:24:48;;;;;;;4.60;1.93;;;13.30;1.00;;;;;;5051803;28;20285;-74
2022/07/17 02:27:17;;;;;;;3.57;1.40;;;13.30;1.00;;;;;;5036136;28;20246;-74
2022/07/17 02:29:43;;;;;;;3.70;1.60;;;13.20;1.00;;;;;;5053946;28;20176;-74
2022/07/17 02:32:08;;;;;;;11.73;1.77;;;13.20;1.00;;;;;;5045032;28;20453;-74
2022/07/17 02:34:34;;;;;;;1.73;1.33;;;13.20;1.00;;;;;;5039405;28;20180;-74
2022/07/17 02:37:00;;;;;;;2.37;1.57;;;13.40;1.00;;;;;;5055387;28;20641;-74
2022/07/17 02:39:25;;;;;;;5.37;1.40;;;13.20;1.00;;;;;;5054716;28;20210;-74
2022/07/17 02:41:53;;;;;;;2.47;1.60;;;13.10;1.00;;;;;;5055289;28;20211;-74
2022/07/17 02:44:29;;;;;;;1.93;1.40;;;13.10;1.00;;;;;;5041648;28;20180;-74
2022/07/17 02:46:55;;;;;;;8.97;1.50;;;13.10;1.00;;;;;;5035426;28;20393;-74
2022/07/17 02:49:20;;;;;;;1.63;1.53;;;13.00;1.00;;;;;;5048895;28;20403;-74
2022/07/17 02:52:05;;;;;;;9.07;1.90;;;13.00;1.00;;;;;;5054929;28;20184;-74
2022/07/17 02:54:30;;;;;;;1.47;1.30;;;13.00;1.00;;;;;;5044096;28;20226;-74
2022/07/17 02:56:59;;;;;;;2.50;1.60;;;13.00;1.00;;;;;;5039375;28;20419;-74
2022/07/17 02:59:25;;;;;;;4.30;1.77;;;12.90;1.00;;;;;;5048520;28;20199;-75
2022/07/17 03:01:53;;;;;;;2.47;1.60;;;12.90;1.00;;;;;;5051456;28;20411;-76
2022/07/17 03:04:29;;;;;;;3.57;1.83;;;12.80;1.00;;;;;;5044405;28;20670;-76
2022/07/17 03:06:55;;;;;;;2.40;1.37;;;12.80;1.00;;;;;;5054616;28;20926;-76
2022/07/17 03:09:21;;;;;;;6.00;1.37;;;12.80;1.00;;;;;;5054683;28;20418;-77
2022/07/17 03:11:47;;;;;;;2.13;1.50;;;12.70;1.00;;;;;;5054427;28;20195;-76
2022/07/17 03:14:17;;;;;;;13.53;1.73;;;12.70;1.00;;;;;;5054560;28;20647;-76
2022/07/17 03:16:43;;;;;;;5.13;1.50;;;12.70;1.00;;;;;;5050430;28;20861;-74
2022/07/17 03:19:09;;;;;;;5.33;1.83;;;12.60;1.00;;;;;;5041616;28;20457;-75
2022/07/17 03:21:35;;;;;;;4.77;1.53;;;12.60;1.00;;;;;;5053556;28;20439;-74
2022/07/17 03:24:01;;;;;;;5.27;1.80;;;12.60;1.00;;;;;;5043601;28;20414;-74
2022/07/17 03:26:29;;;;;;;1.87;1.63;;;12.60;1.00;;;;;;5038195;28;20200;-74
2022/07/17 03:28:59;;;;;;;1.43;1.33;;;12.50;1.00;;;;;;5052919;28;20180;-74
2022/07/17 03:31:25;;;;;;;4.47;1.67;;;12.50;1.00;;;;;;5052974;28;20430;-75
2022/07/17 03:33:53;;;;;;;4.87;1.70;;;12.50;1.00;;;;;;5042948;28;20441;-74
2022/07/17 03:36:20;;;;;;;4.20;1.77;;;12.40;1.00;;;;;;5034249;28;20542;-74
2022/07/17 03:38:45;;;;;;;5.10;1.83;;;12.40;1.00;;;;;;5038253;28;20454;-74
2022/07/17 03:41:11;;;;;;;3.63;1.60;;;12.50;1.00;;;;;;5054124;28;20406;-74
2022/07/17 03:43:37;;;;;;;6.43;1.50;;;12.40;1.00;;;;;;5054162;28;20250;-74
2022/07/17 03:46:03;;;;;;;3.90;1.70;;;12.30;1.00;;;;;;5066998;28;20446;-74
2022/07/17 03:48:29;;;;;;;4.73;1.67;;;12.20;1.00;;;;;;5042024;28;20226;-75
2022/07/17 03:50:55;;;;;;;5.30;1.73;;;12.20;1.00;;;;;;5052960;28;20190;-74
2022/07/17 03:53:20;;;;;;;3.13;1.60;;;12.20;1.00;;;;;;5053739;28;20219;-74
2022/07/17 03:55:46;;;;;;;1.40;1.30;;;12.30;1.00;;;;;;5053519;28;20186;-74
2022/07/17 03:58:35;;;;;;;8.97;2.00;;;12.30;1.00;;;;;;5053797;28;20171;-74
2022/07/17 04:01:01;;;;;;;5.43;1.73;;;12.20;1.00;;;;;;5053151;28;20172;-74
2022/07/17 04:03:29;;;;;;;4.50;1.70;;;12.30;1.00;;;;;;5037807;28;20405;-76
2022/07/17 04:05:59;;;;;;;4.07;2.10;;;12.20;1.00;;;;;;5034079;28;20391;-76
2022/07/17 04:08:30;;;;;;;8.70;1.90;;;12.30;1.00;;;;;;5033929;28;20386;-76
2022/07/17 04:10:59;;;;;;;3.13;1.60;;;12.20;1.00;;;;;;5052249;28;20449;-76
2022/07/17 04:13:29;;;;;;;3.03;1.83;;;12.30;1.00;;;;;;5050061;28;20783;-76
2022/07/17 04:16:35;;;;;;;5.20;2.37;;;12.30;1.00;;;;;;5044831;28;20463;-76
2022/07/17 04:19:00;;;;;;;6.30;2.37;;;12.30;1.00;;;;;;5036653;28;20461;-74
2022/07/17 04:21:41;;;;;;;7.23;2.07;;;12.30;1.00;;;;;;5036210;28;20423;-74
2022/07/17 04:24:07;;;;;;;4.17;2.20;;;12.30;1.00;;;;;;5045100;28;20178;-74
2022/07/17 04:26:35;;;;;;;6.53;2.00;;;12.30;1.00;;;;;;5053275;28;20442;-74
2022/07/17 04:29:05;;;;;;;3.47;1.87;;;12.40;1.00;;;;;;5053448;28;20259;-75
2022/07/17 04:31:35;;;;;;;4.20;1.50;;;12.40;1.00;;;;;;5047715;28;20775;-74
2022/07/17 04:34:11;;;;;;;2.70;1.43;;;12.50;1.00;;;;;;5047198;28;20407;-76
2022/07/17 04:36:37;;;;;;;3.07;1.37;;;12.50;1.00;;;;;;5049007;28;20451;-76
2022/07/17 04:39:05;;;;;;;1.37;1.27;;;12.70;1.00;;;;;;5044217;28;20536;-76
2022/07/17 04:41:47;;;;;;;7.43;1.50;;;12.60;1.00;;;;;;5042038;28;20634;-76
2022/07/17 04:44:29;;;;;;;3.03;1.57;;;12.70;1.00;;;;;;5036203;28;20809;-76
2022/07/17 04:47:00;;;;;;;2.13;1.50;;;12.70;1.00;;;;;;5033845;28;20399;-76
2022/07/17 04:49:29;;;;;;;4.63;1.23;;;12.60;1.00;;;;;;5047483;28;20434;-77
2022/07/17 04:51:55;;;;;;;2.57;1.80;;;12.90;1.00;;;;;;5048773;28;20429;-76
2022/07/17 04:54:23;;;;;;;3.30;1.67;;;12.90;1.00;;;;;;5053112;28;20402;-77
2022/07/17 04:57:05;;;;;;;5.63;2.00;;;13.00;1.00;;;;;;5039883;28;20623;-77
2022/07/17 04:59:37;;;;;;;4.77;1.77;;;13.00;1.00;;;;;;5053095;28;20789;-77
2022/07/17 05:02:03;;;;;;;9.10;1.90;;;13.00;1.00;;;;;;5049784;28;20386;-76
2022/07/17 05:04:29;;;;;;;2.70;1.83;;;13.20;1.00;;;;;;5033650;28;20409;-76
2022/07/17 05:06:55;;;;;;;3.50;1.73;;;13.20;1.00;;;;;;5046575;28;20477;-76
2022/07/17 05:09:23;;;;;;;2.63;1.67;;;13.30;1.00;;;;;;5047301;28;20430;-76
2022/07/17 05:11:49;;;;;;;9.90;1.60;;;13.40;1.00;;;;;;5057203;28;20405;-77
2022/07/17 05:14:17;;;;;;;11.70;1.83;;;13.50;1.00;;;;;;5057563;28;20461;-77
2022/07/17 05:16:59;;;;;;;3.77;1.70;;;13.60;1.00;;;;;;5042137;28;20211;-77
2022/07/17 05:19:25;;;;;;;4.60;1.60;;;13.70;1.00;;;;;;5056690;28;20965;-82
2022/07/17 05:21:53;;;;;;;3.40;1.63;;;13.80;1.00;;;;;;5056539;28;20432;-81
2022/07/17 05:24:35;;;;;;;4.00;1.50;;;13.80;1.00;;;;;;5055481;28;20183;-80
2022/07/17 05:27:05;;;;;;;3.80;1.53;;;14.00;1.00;;;;;;5048171;28;20918;-81
2022/07/17 05:29:47;;;;;;;7.53;1.57;;;14.10;1.00;;;;;;5045263;28;20449;-81
2022/07/17 05:32:29;;;;;;;2.60;1.60;;;14.20;1.00;;;;;;5044164;28;20408;-81
2022/07/17 05:38:17;;;;;;;2.73;1.70;;;14.40;1.00;;;;;;5046236;28;20486;-81
2022/07/17 05:41:23;;;;;;;4.57;1.27;;;14.60;1.00;;;;;;5053421;28;20417;-81
2022/07/17 05:44:17;;;;;;;16.83;1.47;;;14.70;1.00;;;;;;5056403;28;20383;-81
2022/07/17 05:47:00;;;;;;;2.00;1.47;;;14.90;1.00;;;;;;5056210;28;20393;-81
2022/07/17 05:49:26;;;;;;;3.47;1.33;;;15.10;1.00;;;;;;5038982;28;20471;-78
2022/07/17 05:51:52;;;;;;;4.67;1.30;;;15.20;1.00;;;;;;5036123;28;20370;-78
2022/07/17 05:54:22;;;;;;;2.77;1.30;;;15.30;1.00;;;;;;5041510;28;20191;-77
2022/07/17 05:57:23;;;;;;;6.40;1.30;;;15.50;1.00;;;;;;5055802;28;20636;-77
2022/07/17 05:59:49;;;;;;;5.33;1.33;;;15.70;1.00;;;;;;5045688;28;20928;-79
2022/07/17 06:02:17;;;;;;;6.40;1.50;;;15.80;1.00;;;;;;5055927;28;20391;-78
2022/07/17 06:04:47;;;;;;;10.70;1.67;;;15.90;1.00;;;;;;5055977;28;20627;-81
2022/07/17 06:08:05;;;;;;;2.50;1.17;;;16.00;1.00;;;;;;5054498;28;20426;-80
2022/07/17 06:10:41;;;;;;;3.40;1.20;;;16.20;1.00;;;;;;5046860;28;20480;-80
2022/07/17 06:13:17;;;;;;;9.33;1.70;;;16.40;1.00;;;;;;5035832;28;20420;-81
2022/07/17 06:15:48;;;;;;;1.57;1.00;;;16.60;1.00;;;;;;5042680;28;20904;-80
2022/07/17 06:18:13;;;;;;;5.57;1.20;;;16.60;1.00;;;;;;5055523;28;20417;-78
2022/07/17 06:20:41;;;;;;;3.97;1.20;;;16.80;1.00;;;;;;5054048;28;20405;-77
2022/07/17 06:23:17;;;;;;;3.83;1.20;;;17.00;1.00;;;;;;5041481;28;20681;-77
2022/07/17 06:25:47;;;;;;;1.43;1.17;;;17.10;1.00;;;;;;5036713;28;20922;-77
2022/07/17 06:28:23;;;;;;;4.30;1.17;;;17.20;1.00;;;;;;5053528;28;20424;-77
2022/07/17 06:31:05;;;;;;;2.30;1.40;;;17.30;1.00;;;;;;5039590;28;20448;-77
2022/07/17 06:33:31;;;;;;;1.60;0.80;;;17.50;1.00;;;;;;5047430;28;20506;-73
2022/07/17 06:35:56;;;;;;;1.67;1.10;;;17.60;1.00;;;;;;5055316;28;20837;-73
2022/07/17 06:38:22;;;;;;;1.73;1.10;;;17.80;1.00;;;;;;5055146;28;20171;-74
2022/07/17 06:40:48;;;;;;;2.87;1.30;;;17.90;1.00;;;;;;5054467;28;20544;-73
2022/07/17 06:43:14;;;;;;;2.50;1.10;;;18.10;1.00;;;;;;5054696;28;20167;-74
2022/07/17 06:45:39;;;;;;;4.43;1.13;;;18.10;1.00;;;;;;5041824;28;20202;-74
2022/07/17 06:48:05;;;;;;;1.97;1.10;;;18.30;1.00;;;;;;5054994;28;20170;-74
2022/07/17 06:50:31;;;;;;;3.27;1.20;;;18.50;1.00;;;;;;5059428;28;20179;-75
2022/07/17 06:52:58;;;;;;;2.90;1.20;;;18.60;1.00;;;;;;5054823;28;20770;-80
2022/07/17 06:55:42;;;;;;;2.93;1.17;;;18.70;1.00;;;;;;5040420;28;20244;-79
2022/07/17 06:58:08;;;;;;;6.93;1.27;;;18.90;1.00;;;;;;5050638;28;20465;-80
2022/07/17 07:00:35;;;;;;;4.50;1.20;;;19.00;1.00;;;;;;5054466;28;20503;-81
2022/07/17 07:03:17;;;;;;;4.87;1.37;;;19.10;1.00;;;;;;5054393;28;20975;-80
2022/07/17 07:06:05;;;;;;;7.03;1.20;;;19.20;1.00;;;;;;5048354;28;20820;-81
2022/07/17 07:08:32;;;;;;;3.30;1.00;;;19.40;1.00;;;;;;5043825;28;20430;-80
2022/07/17 07:11:17;;;;;;;11.80;1.37;;;19.60;1.00;;;;;;5053436;28;20411;-81
2022/07/17 07:13:43;;;;;;;5.03;1.30;;;19.80;1.00;;;;;;5036120;28;20442;-80
2022/07/17 07:16:10;;;;;;;5.97;1.40;;;19.90;1.00;;;;;;5032943;28;20454;-80
2022/07/17 07:18:41;;;;;;;3.00;1.40;;;20.10;1.00;;;;;;5045735;28;20191;-81
2022/07/17 07:21:17;;;;;;;2.07;1.20;;;20.20;1.00;;;;;;5053464;28;20917;-80
2022/07/17 07:23:44;;;;;;;5.33;1.43;;;20.30;1.00;;;;;;5053742;28;20427;-80
2022/07/17 07:26:41;;;;;;;4.57;1.33;;;20.40;1.00;;;;;;5053994;28;20427;-80
2022/07/17 07:29:11;;;;;;;1.77;1.13;;;20.50;1.00;;;;;;5039188;28;20442;-80
2022/07/17 07:31:41;;;;;;;5.70;1.43;;;20.70;1.00;;;;;;5052165;28;20442;-76
2022/07/17 07:34:11;;;;;;;2.43;1.00;;;20.80;1.00;;;;;;5054687;28;20809;-82
2022/07/17 07:36:42;;;;;;;6.53;1.37;;;20.80;1.00;;;;;;5055435;28;20414;-83
2022/07/17 07:39:08;;;;;;;8.77;1.10;;;20.90;1.00;;;;;;5040797;28;20453;-82
2022/07/17 07:41:34;;;;;;;5.77;1.80;;;21.00;1.00;;;;;;5053417;28;20421;-83
2022/07/17 07:44:35;;;;;;;3.37;0.90;;;21.10;1.00;;;;;;5049801;28;20672;-83
2022/07/17 07:47:53;;;;;;;2.20;0.80;;;21.20;1.00;;;;;;5033948;28;20544;-83
2022/07/17 07:50:29;;;;;;;6.20;1.20;;;21.40;1.00;;;;;;5043927;28;20838;-83
2022/07/17 07:53:05;;;;;;;7.60;1.10;;;21.60;1.00;;;;;;5046635;28;20422;-82
2022/07/17 07:56:05;;;;;;;4.97;1.40;;;21.70;1.00;;;;;;5045487;28;20422;-82
2022/07/17 08:01:53;;;;;;;4.43;0.90;;;22.00;1.00;;;;;;5047097;28;20409;-79
2022/07/17 08:04:29;;;;;;;2.93;0.87;;;22.10;1.00;;;;;;5044043;28;20411;-79
2022/07/17 08:07:12;;;;;;;1.70;0.83;;;22.30;1.00;;;;;;5034661;28;20199;-86
2022/07/17 08:09:42;;;;;;;4.23;0.93;;;22.50;1.00;;;;;;5034248;28;20427;-74
2022/07/17 08:12:07;;;;;;;7.87;1.10;;;22.60;1.00;;;;;;5048624;28;20415;-74
2022/07/17 08:14:33;;;;;;;3.33;1.23;;;22.70;1.00;;;;;;5052882;28;20440;-75
2022/07/17 08:17:05;;;;;;;2.60;1.00;;;22.80;1.00;;;;;;5052726;28;20256;-75
2022/07/17 08:19:36;;;;;;;5.00;1.23;;;23.00;1.00;;;;;;5049361;28;20565;-74
2022/07/17 08:22:02;;;;;;;13.33;1.67;;;23.10;1.00;;;;;;5040017;28;20422;-75
2022/07/17 08:24:28;;;;;;;4.83;1.03;;;23.30;1.00;;;;;;5047131;28;21052;-75
2022/07/17 08:26:53;;;;;;;5.13;1.40;;;23.20;1.00;;;;;;5052104;28;20489;-75
2022/07/17 08:29:19;;;;;;;3.00;1.20;;;23.20;1.00;;;;;;5053511;28;20492;-75
2022/07/17 08:31:45;;;;;;;2.87;1.00;;;23.30;1.00;;;;;;5034073;28;20771;-75
2022/07/17 08:34:11;;;;;;;2.90;1.00;;;23.30;1.00;;;;;;5050764;28;20179;-75
2022/07/17 08:36:36;;;;;;;4.97;1.00;;;23.40;1.00;;;;;;5040913;28;20188;-78
2022/07/17 08:39:23;;;;;;;4.23;0.93;;;23.40;1.00;;;;;;5045738;28;20463;-80
2022/07/17 08:41:49;;;;;;;1.73;1.07;;;23.50;1.00;;;;;;5033321;28;20167;-80
2022/07/17 08:44:35;;;;;;;6.97;1.80;;;23.70;1.00;;;;;;5044270;28;20435;-80
2022/07/17 08:47:23;;;;;;;9.03;2.10;;;23.80;1.00;;;;;;5037084;28;20410;-80
2022/07/17 08:49:53;;;;;;;3.37;0.90;;;24.00;1.00;;;;;;5041722;28;20433;-82
2022/07/17 08:52:53;;;;;;;1.93;0.80;;;24.00;1.00;;;;;;5037718;28;20429;-82
2022/07/17 08:55:23;;;;;;;1.53;0.90;;;24.10;1.00;;;;;;5055744;28;20421;-81
2022/07/17 08:57:54;;;;;;;1.70;0.80;;;24.20;1.00;;;;;;5042820;28;20979;-82
2022/07/17 09:00:22;;;;;;;1.47;1.00;;;24.40;1.00;;;;;;5056795;28;20450;-82
2022/07/17 09:03:06;;;;;;;7.43;1.13;;;24.40;1.00;;;;;;5054293;28;20483;-81
2022/07/17 09:05:38;;;;;;;1.67;0.90;;;24.50;1.00;;;;;;5052246;28;20425;-82
2022/07/17 09:08:08;;;;;;;4.47;1.13;;;24.40;1.00;;;;;;5047772;28;20903;-81
2022/07/17 09:10:42;;;;;;;1.90;0.80;;;24.50;1.00;;;;;;5043031;28;20465;-79
2022/07/17 09:13:20;;;;;;;0.97;0.80;;;24.60;1.00;;;;;;5056947;28;20465;-77
2022/07/17 09:15:48;;;;;;;2.93;0.90;;;24.60;1.00;;;;;;5036988;28;20417;-76
2022/07/17 09:18:18;;;;;;;6.47;0.87;;;24.70;1.00;;;;;;5049640;28;20490;-76
2022/07/17 09:20:50;;;;;;;2.47;1.10;;;24.80;1.00;;;;;;5035367;28;20547;-76
2022/07/17 09:23:19;;;;;;;2.13;1.03;;;24.90;1.00;;;;;;5051205;28;20501;-76
2022/07/17 09:25:48;;;;;;;4.83;1.00;;;25.00;1.00;;;;;;5047352;28;20461;-77
2022/07/17 09:28:26;;;;;;;2.30;0.90;;;25.10;1.00;;;;;;5043280;28;20433;-77
2022/07/17 09:30:55;;;;;;;2.23;0.90;;;25.10;1.00;;;;;;5038737;28;20408;-76
2022/07/17 09:33:23;;;;;;;3.37;0.87;;;25.20;1.00;;;;;;5049751;28;20429;-76
2022/07/17 09:36:05;;;;;;;4.87;0.97;;;25.30;1.00;;;;;;5056221;28;20471;-76
2022/07/17 09:38:59;;;;;;;5.60;1.10;;;25.40;1.00;;;;;;5037147;28;20408;-76
2022/07/17 09:41:26;;;;;;;2.37;0.90;;;25.50;1.00;;;;;;5043873;28;20422;-77
2022/07/17 09:43:58;;;;;;;2.40;1.10;;;25.60;1.00;;;;;;5046799;28;20451;-77
2022/07/17 09:46:30;;;;;;;3.90;0.93;;;25.60;1.00;;;;;;5037249;28;20422;-77
2022/07/17 09:49:02;;;;;;;1.33;1.00;;;25.70;1.00;;;;;;5036596;28;20500;-77
2022/07/17 09:51:41;;;;;;;4.30;1.10;;;25.70;1.00;;;;;;5043726;28;20414;-76
2022/07/17 09:54:11;;;;;;;1.10;1.00;;;25.70;1.00;;;;;;5054041;28;20432;-77
2022/07/17 09:56:58;;;;;;;4.03;0.93;;;25.70;1.00;;;;;;5049978;28;20421;-77
2022/07/17 09:59:38;;;;;;;6.13;0.87;;;25.70;1.00;;;;;;5046396;28;20499;-77
2022/07/17 10:02:04;;;;;;;4.53;1.10;;;25.60;1.00;;;;;;5046214;28;20414;-77
2022/07/17 10:04:30;;;;;;;2.63;1.00;;;25.80;1.00;;;;;;5042234;28;20440;-77
2022/07/17 10:07:12;;;;;;;3.37;1.10;;;26.00;1.00;;;;;;5056057;28;20423;-77
2022/07/17 10:09:47;;;;;;;2.17;0.93;;;26.10;1.00;;;;;;5042371;28;20423;-77
2022/07/17 10:12:19;;;;;;;4.30;0.77;;;26.20;1.00;;;;;;5042340;28;20415;-77
2022/07/17 10:14:48;;;;;;;1.30;0.80;;;26.30;1.00;;;;;;5047781;28;20928;-77
2022/07/17 10:17:20;;;;;;;5.30;0.90;;;26.40;1.00;;;;;;5048813;28;20414;-77
2022/07/17 10:19:52;;;;;;;1.47;0.80;;;26.60;1.00;;;;;;5054127;28;20598;-77
2022/07/17 10:22:45;;;;;;;3.53;1.43;;;26.70;1.00;;;;;;5042419;28;20419;-77
2022/07/17 10:25:16;;;;;;;4.93;0.80;;;26.90;1.00;;;;;;5049555;28;20421;-77
2022/07/17 10:27:53;;;;;;;3.37;0.80;;;26.90;1.00;;;;;;5043464;28;20439;-76
2022/07/17 10:30:31;;;;;;;6.57;0.80;;;26.70;1.00;;;;;;5039181;28;20453;-77
2022/07/17 10:33:35;;;;;;;2.00;0.90;;;26.80;1.00;;;;;;5046330;28;20504;-76
2022/07/17 10:36:05;;;;;;;4.70;0.80;;;26.90;1.00;;;;;;5041970;28;20422;-76
2022/07/17 10:38:42;;;;;;;2.90;0.93;;;27.00;1.00;;;;;;5045831;28;20447;-77
2022/07/17 10:41:20;;;;;;;2.10;1.00;;;27.10;1.00;;;;;;5052560;28;20778;-77
2022/07/17 10:43:49;;;;;;;1.50;1.10;;;27.10;1.00;;;;;;5042478;28;20809;-77
2022/07/17 10:46:41;;;;;;;2.33;0.80;;;27.00;1.00;;;;;;5050804;28;20759;-77
2022/07/17 10:49:11;;;;;;;2.17;1.00;;;27.10;1.00;;;;;;5050339;28;20431;-75
2022/07/17 10:51:53;;;;;;;2.03;1.00;;;27.10;1.00;;;;;;5045691;28;20421;-76
2022/07/17 10:54:33;;;;;;;1.57;1.13;;;27.30;1.00;;;;;;5034127;28;20930;-79
2022/07/17 10:57:01;;;;;;;3.70;1.10;;;27.50;1.00;;;;;;5048105;28;20408;-78
2022/07/17 10:59:42;;;;;;;1.17;1.00;;;27.50;1.00;;;;;;5061285;28;20963;-78
2022/07/17 11:02:11;;;;;;;1.33;0.77;;;27.70;1.00;;;;;;5038311;28;20446;-78
2022/07/17 11:04:47;;;;;;;8.53;1.10;;;27.70;1.00;;;;;;5043031;28;20961;-77
2022/07/17 11:07:29;;;;;;;3.50;1.20;;;27.70;1.00;;;;;;5041943;28;20434;-78
2022/07/17 11:10:17;;;;;;;1.00;0.77;;;27.70;1.00;;;;;;5050196;28;20428;-78
2022/07/17 11:12:43;;;;;;;5.40;1.50;;;27.70;1.00;;;;;;5051992;28;20474;-77
2022/07/17 11:15:18;;;;;;;4.13;1.20;;;27.80;1.00;;;;;;5047739;28;20468;-78
2022/07/17 11:17:49;;;;;;;9.83;1.63;;;27.80;1.00;;;;;;5053825;28;20548;-78
2022/07/17 11:20:17;;;;;;;2.20;0.90;;;27.90;1.00;;;;;;5054105;28;20450;-78
2022/07/17 11:22:43;;;;;;;1.63;0.97;;;28.10;1.00;;;;;;5054359;28;20417;-78
2022/07/17 11:25:35;;;;;;;3.00;0.90;;;28.20;1.00;;;;;;5040688;28;20421;-78
2022/07/17 11:28:32;;;;;;;1.17;1.07;;;28.20;1.00;;;;;;5050525;28;20209;-78
2022/07/17 11:30:59;;;;;;;2.90;1.30;;;28.20;1.00;;;;;;5040800;28;20501;-77
2022/07/17 11:33:57;;;;;;;0.87;0.80;;;28.30;1.00;;;;;;5048553;28;20432;-77
2022/07/17 11:36:26;;;;;;;1.57;0.83;;;28.30;1.00;;;;;;5044579;28;20433;-78
2022/07/17 11:38:56;;;;;;;1.20;0.87;;;28.30;1.00;;;;;;5053456;28;20502;-77
2022/07/17 11:41:41;;;;;;;1.67;0.80;;;28.40;1.00;;;;;;5042813;28;20463;-77
2022/07/17 11:44:17;;;;;;;4.80;0.90;;;28.40;1.00;;;;;;5051008;28;20422;-78
2022/07/17 11:46:52;;;;;;;22.47;1.33;;;28.50;1.00;;;;;;5042193;28;20514;-77
2022/07/17 11:49:41;;;;;;;4.97;1.07;;;28.70;1.00;;;;;;5053877;28;20433;-78
2022/07/17 11:52:15;;;;;;;2.30;0.90;;;28.60;1.00;;;;;;5040202;28;20414;-77
2022/07/17 11:54:56;;;;;;;0.87;0.87;;;28.80;1.00;;;;;;5052597;28;20899;-74
2022/07/17 11:57:42;;;;;;;2.63;0.70;;;28.90;1.00;;;;;;5050362;28;20490;-80
2022/07/17 12:00:09;;;;;;;5.07;0.70;;;29.00;1.00;;;;;;5047868;28;20467;-84
2022/07/17 12:02:35;;;;;;;1.70;0.90;;;29.10;1.00;;;;;;5033518;28;20499;-82
2022/07/17 12:05:02;;;;;;;4.97;0.90;;;29.30;1.00;;;;;;5047119;28;20468;-80
2022/07/17 12:07:41;;;;;;;2.30;0.90;;;29.40;1.00;;;;;;5045841;28;20414;-80
2022/07/17 12:10:19;;;;;;;4.47;1.07;;;29.40;1.00;;;;;;5041173;28;20420;-76
2022/07/17 12:12:59;;;;;;;3.03;1.00;;;29.40;1.00;;;;;;5051184;28;20409;-75
2022/07/17 12:15:54;;;;;;;215.80;7.47;;;29.40;1.00;;;;;;5044568;28;20430;-76
2022/07/17 12:18:35;;;;;;;9.13;1.23;;;29.50;1.00;;;;;;4956265;28;20971;-78
2022/07/17 12:21:06;;;;;;;120.97;3.53;;;29.70;1.00;;;;;;4971865;28;20982;-77
2022/07/17 12:27:23;;;;;;;0.77;0.77;;;30.00;1.00;;;;;;4981799;28;20407;-85
2022/07/17 12:29:59;;;;;;;1.63;0.70;;;30.00;1.00;;;;;;4974239;28;20441;-82
2022/07/17 12:32:41;;;;;;;1.93;0.73;;;30.10;1.00;;;;;;4972200;28;20436;-76
2022/07/17 12:35:11;;;;;;;6.20;0.80;;;30.20;1.00;;;;;;4984006;28;20527;-77
2022/07/17 12:37:47;;;;;;;2.80;0.80;;;30.20;1.00;;;;;;4972656;28;20461;-77
2022/07/17 12:40:13;;;;;;;1.40;0.97;;;30.20;1.00;;;;;;4972794;28;20457;-79
2022/07/17 12:42:39;;;;;;;4.10;0.80;;;30.20;1.00;;;;;;4972235;28;20500;-78
2022/07/17 12:45:23;;;;;;;3.43;0.80;;;30.30;1.00;;;;;;4972441;28;20218;-77
2022/07/17 12:47:53;;;;;;;2.30;0.80;;;30.40;1.00;;;;;;4972467;28;20225;-78
2022/07/17 12:50:19;;;;;;;6.07;1.20;;;30.50;1.00;;;;;;4959356;28;20422;-78
2022/07/17 12:52:48;;;;;;;2.60;0.90;;;30.60;1.00;;;;;;4972299;28;20512;-79
2022/07/17 12:55:14;;;;;;;3.63;0.70;;;30.60;1.00;;;;;;5025364;28;20242;-75
2022/07/17 12:57:41;;;;;;;1.23;1.10;;;30.60;1.00;;;;;;5048114;28;20512;-74
2022/07/17 13:00:08;;;;;;;5.20;1.10;;;30.60;1.00;;;;;;5034276;28;20637;-74
2022/07/17 13:02:34;;;;;;;2.03;0.70;;;30.60;1.00;;;;;;5048601;28;20456;-75
2022/07/17 13:04:59;;;;;;;3.13;0.90;;;30.70;1.00;;;;;;5052833;28;20441;-74
2022/07/17 13:07:29;;;;;;;1.20;0.90;;;30.60;1.00;;;;;;5052735;28;20168;-74
2022/07/17 13:10:06;;;;;;;6.67;0.87;;;30.60;1.00;;;;;;5044981;28;20272;-79
2022/07/17 13:12:35;;;;;;;5.73;0.80;;;30.70;1.00;;;;;;5058524;28;21207;-78
2022/07/17 13:15:11;;;;;;;9.90;1.20;;;30.80;1.00;;;;;;5040323;28;20931;-78
2022/07/17 13:17:38;;;;;;;1.43;0.70;;;31.00;1.00;;;;;;5039590;28;20775;-78
2022/07/17 13:20:04;;;;;;;2.13;0.90;;;31.10;1.00;;;;;;5044128;28;20981;-78
2022/07/17 13:22:41;;;;;;;1.47;0.70;;;31.10;1.00;;;;;;5046762;28;20421;-78
2022/07/17 13:25:08;;;;;;;1.30;1.00;;;31.20;1.00;;;;;;5043577;28;20410;-74
2022/07/17 13:27:33;;;;;;;4.43;1.10;;;31.20;1.00;;;;;;5052702;28;20409;-74
2022/07/17 13:29:59;;;;;;;1.50;0.80;;;31.30;1.00;;;;;;5055806;28;20426;-74
2022/07/17 13:32:24;;;;;;;1.73;0.87;;;31.30;1.00;;;;;;5053674;28;20216;-74